Time;durP1;ratioP1;P1;durP2;ratioP2;P2;SDS_P1;SDS_P2;PMS_P1;PMS_P2;Temp;Humidity;BMP_temperature;BMP_pressure;BME280_temperature;BME280_humidity;BME280_pressure;Samples;Min_cycle;Max_cycle;Signal;HPM_P1;HPM_P2
2023/04/14 00:01:19;;;;;;;6.27;2.17;;;;;;;;;;5046549;28;20208;-70
2023/04/14 00:03:44;;;;;;;8.60;2.67;;;;;;;;;;5039376;28;20249;-70
2023/04/14 00:06:09;;;;;;;9.43;2.57;;;;;;;;;;5042215;28;20274;-70
2023/04/14 00:08:35;;;;;;;7.37;2.50;;;;;;;;;;5028740;28;20231;-70
2023/04/14 00:11:00;;;;;;;9.37;2.60;;;;;;;;;;5029788;28;20688;-70
2023/04/14 00:13:26;;;;;;;11.17;2.40;;;;;;;;;;5042838;28;20210;-69
2023/04/14 00:15:51;;;;;;;5.67;2.40;;;;;;;;;;5046655;28;20632;-69
2023/04/14 00:18:17;;;;;;;7.30;2.50;;;;;;;;;;5041928;28;20209;-69
2023/04/14 00:20:42;;;;;;;8.90;2.47;;;;;;;;;;5045904;28;20327;-69
2023/04/14 00:23:08;;;;;;;8.50;2.40;;;;;;;;;;5031700;28;20194;-69
2023/04/14 00:25:34;;;;;;;9.33;2.40;;;;;;;;;;5040307;28;20293;-70
2023/04/14 00:27:59;;;;;;;10.60;2.47;;;;;;;;;;5037451;28;20212;-69
2023/04/14 00:30:24;;;;;;;6.73;2.33;;;;;;;;;;5037365;28;20237;-70
2023/04/14 00:32:50;;;;;;;8.23;2.30;;;;;;;;;;5043365;28;20210;-70
2023/04/14 00:35:15;;;;;;;9.80;2.50;;;;;;;;;;5031859;28;20200;-69
2023/04/14 00:37:41;;;;;;;6.10;2.37;;;;;;;;;;5036354;28;20224;-69
2023/04/14 00:40:08;;;;;;;5.30;2.20;;;;;;;;;;5046741;28;20235;-69
2023/04/14 00:42:43;;;;;;;8.17;2.43;;;;;;;;;;5030002;28;20182;-70
2023/04/14 00:45:09;;;;;;;9.27;2.33;;;;;;;;;;5040026;28;20216;-69
2023/04/14 00:47:37;;;;;;;6.57;2.27;;;;;;;;;;5031223;28;20473;-69
2023/04/14 00:50:03;;;;;;;6.20;2.13;;;;;;;;;;5037628;28;20221;-69
2023/04/14 00:52:30;;;;;;;7.53;2.03;;;;;;;;;;5041802;28;20209;-69
2023/04/14 00:54:56;;;;;;;4.73;2.50;;;;;;;;;;5043818;28;20671;-69
2023/04/14 00:57:21;;;;;;;9.13;2.17;;;;;;;;;;5045453;28;20189;-70
2023/04/14 00:59:47;;;;;;;8.07;2.10;;;;;;;;;;5028359;28;20186;-70
2023/04/14 01:02:12;;;;;;;8.03;2.40;;;;;;;;;;5046245;28;20235;-70
2023/04/14 01:04:38;;;;;;;6.30;2.23;;;;;;;;;;5046048;28;20625;-69
2023/04/14 01:07:04;;;;;;;5.37;2.10;;;;;;;;;;5046835;28;20190;-70
2023/04/14 01:09:30;;;;;;;8.63;2.13;;;;;;;;;;5043819;28;20204;-70
2023/04/14 01:12:21;;;;;;;6.43;2.40;;;;;;;;;;5041499;28;20223;-70
2023/04/14 01:14:54;;;;;;;6.50;2.40;;;;;;;;;;5042584;28;20182;-70
2023/04/14 01:17:32;;;;;;;7.43;2.10;;;;;;;;;;5047199;28;20706;-70
2023/04/14 01:20:27;;;;;;;8.13;2.20;;;;;;;;;;5043021;28;20197;-70
2023/04/14 01:23:05;;;;;;;5.70;1.90;;;;;;;;;;5045119;28;20251;-70
2023/04/14 01:26:08;;;;;;;8.50;2.50;;;;;;;;;;5035599;28;20296;-71
2023/04/14 01:28:57;;;;;;;7.43;2.10;;;;;;;;;;5031748;28;20665;-71
2023/04/14 01:31:31;;;;;;;5.80;1.90;;;;;;;;;;5032584;28;20582;-70
2023/04/14 01:34:05;;;;;;;7.77;2.40;;;;;;;;;;5044315;28;20189;-70
2023/04/14 01:36:40;;;;;;;6.70;1.97;;;;;;;;;;5043280;28;20522;-70
2023/04/14 01:39:09;;;;;;;9.17;2.10;;;;;;;;;;5044245;28;20185;-69
2023/04/14 01:41:38;;;;;;;11.33;2.20;;;;;;;;;;5044041;28;20323;-70
2023/04/14 01:44:06;;;;;;;8.27;2.13;;;;;;;;;;5034445;28;20226;-69
2023/04/14 01:46:33;;;;;;;5.37;1.70;;;;;;;;;;5035125;28;20220;-70
2023/04/14 01:48:59;;;;;;;4.43;1.73;;;;;;;;;;5040765;28;20190;-69
2023/04/14 01:51:26;;;;;;;5.27;1.90;;;;;;;;;;5045817;28;20591;-69
2023/04/14 01:53:54;;;;;;;3.50;1.90;;;;;;;;;;5045375;28;20193;-70
2023/04/14 01:56:21;;;;;;;5.73;1.80;;;;;;;;;;5036212;28;20190;-69
2023/04/14 01:58:48;;;;;;;2.90;1.40;;;;;;;;;;5027932;28;20186;-69
2023/04/14 02:01:15;;;;;;;4.53;1.67;;;;;;;;;;5038534;28;20283;-69
2023/04/14 02:03:42;;;;;;;8.23;2.10;;;;;;;;;;5045076;28;20185;-70
2023/04/14 02:06:10;;;;;;;9.80;2.10;;;;;;;;;;5043192;28;20185;-70
2023/04/14 02:08:38;;;;;;;5.30;2.10;;;;;;;;;;5034525;28;20189;-69
2023/04/14 02:11:05;;;;;;;4.33;2.17;;;;;;;;;;5042638;28;20225;-69
2023/04/14 02:13:31;;;;;;;3.77;2.10;;;;;;;;;;5049964;28;20550;-70
2023/04/14 02:15:58;;;;;;;6.30;2.33;;;;;;;;;;5042051;28;20186;-69
2023/04/14 02:18:26;;;;;;;6.37;1.90;;;;;;;;;;5036003;28;20225;-70
2023/04/14 02:20:54;;;;;;;4.37;2.07;;;;;;;;;;5047666;28;20698;-69
2023/04/14 02:23:20;;;;;;;6.13;2.03;;;;;;;;;;5047165;28;20817;-70
2023/04/14 02:26:07;;;;;;;11.87;2.60;;;;;;;;;;5047904;28;20237;-69
2023/04/14 02:28:39;;;;;;;5.30;1.97;;;;;;;;;;5031812;28;20595;-69
2023/04/14 02:31:08;;;;;;;6.13;2.00;;;;;;;;;;5042621;28;20213;-70
2023/04/14 02:33:36;;;;;;;3.83;2.10;;;;;;;;;;5046719;28;20197;-69
2023/04/14 02:36:37;;;;;;;9.10;2.03;;;;;;;;;;5047530;28;20189;-70
2023/04/14 02:39:13;;;;;;;5.27;2.00;;;;;;;;;;5040716;28;20185;-69
2023/04/14 02:41:43;;;;;;;7.77;2.40;;;;;;;;;;5043429;28;20200;-70
2023/04/14 02:44:18;;;;;;;6.40;2.23;;;;;;;;;;5049063;28;20565;-70
2023/04/14 02:46:52;;;;;;;6.77;2.20;;;;;;;;;;5043974;28;20383;-70
2023/04/14 02:49:20;;;;;;;7.80;2.37;;;;;;;;;;5047126;28;20213;-70
2023/04/14 02:51:47;;;;;;;4.57;2.30;;;;;;;;;;5042545;28;20216;-70
2023/04/14 02:54:14;;;;;;;9.60;2.87;;;;;;;;;;5049431;28;20189;-70
2023/04/14 02:56:40;;;;;;;9.70;3.07;;;;;;;;;;5045083;28;20259;-70
2023/04/14 02:59:06;;;;;;;5.77;2.50;;;;;;;;;;5035076;28;20269;-70
2023/04/14 03:01:33;;;;;;;5.53;2.30;;;;;;;;;;5048297;28;20205;-70
2023/04/14 03:03:59;;;;;;;12.07;2.80;;;;;;;;;;5035249;28;20280;-70
2023/04/14 03:06:26;;;;;;;8.60;3.27;;;;;;;;;;5042999;28;20198;-70
2023/04/14 03:08:53;;;;;;;7.00;3.30;;;;;;;;;;5029999;28;20277;-70
2023/04/14 03:11:20;;;;;;;6.93;2.57;;;;;;;;;;5043718;28;20300;-69
2023/04/14 03:13:50;;;;;;;6.43;2.47;;;;;;;;;;5028789;28;20720;-70
2023/04/14 03:16:18;;;;;;;9.47;3.03;;;;;;;;;;5039899;28;20235;-70
2023/04/14 03:18:44;;;;;;;7.97;2.67;;;;;;;;;;5041719;28;20190;-70
2023/04/14 03:21:09;;;;;;;8.50;2.70;;;;;;;;;;5042260;28;20668;-69
2023/04/14 03:23:36;;;;;;;5.77;2.67;;;;;;;;;;5036963;28;20324;-70
2023/04/14 03:26:03;;;;;;;6.57;2.40;;;;;;;;;;5032287;28;20181;-69
2023/04/14 03:28:32;;;;;;;6.67;2.63;;;;;;;;;;5048173;28;20224;-69
2023/04/14 03:31:00;;;;;;;9.63;2.73;;;;;;;;;;5047214;28;20672;-70
2023/04/14 03:33:27;;;;;;;4.70;2.80;;;;;;;;;;5047744;28;20654;-69
2023/04/14 03:35:56;;;;;;;8.53;3.00;;;;;;;;;;5041695;28;20650;-70
2023/04/14 03:38:25;;;;;;;4.50;2.50;;;;;;;;;;5033520;28;20269;-69
2023/04/14 03:40:52;;;;;;;7.83;2.70;;;;;;;;;;5042345;28;20665;-69
2023/04/14 03:43:21;;;;;;;7.63;2.70;;;;;;;;;;5047961;28;20276;-69
2023/04/14 03:45:48;;;;;;;4.37;2.17;;;;;;;;;;5043127;28;20591;-69
2023/04/14 03:48:17;;;;;;;5.73;2.30;;;;;;;;;;5037293;28;20193;-70
2023/04/14 03:50:45;;;;;;;3.80;2.50;;;;;;;;;;5044327;28;20679;-70
2023/04/14 03:53:13;;;;;;;8.57;2.47;;;;;;;;;;5037958;28;20612;-70
2023/04/14 03:55:41;;;;;;;8.43;2.90;;;;;;;;;;5045047;28;20193;-70
2023/04/14 03:58:07;;;;;;;10.53;3.13;;;;;;;;;;5040276;28;20263;-70
2023/04/14 04:00:33;;;;;;;8.37;2.80;;;;;;;;;;5047405;28;20217;-70
2023/04/14 04:03:00;;;;;;;5.70;2.90;;;;;;;;;;5039858;28;20196;-70
2023/04/14 04:05:26;;;;;;;8.53;3.00;;;;;;;;;;5028242;28;20182;-70
2023/04/14 04:07:54;;;;;;;12.20;3.57;;;;;;;;;;5044824;28;20296;-70
2023/04/14 04:10:20;;;;;;;6.07;2.93;;;;;;;;;;5037693;28;20223;-70
2023/04/14 04:12:47;;;;;;;10.17;3.13;;;;;;;;;;5042494;28;20217;-70
2023/04/14 04:15:13;;;;;;;9.40;3.33;;;;;;;;;;5045321;28;20272;-70
2023/04/14 04:17:40;;;;;;;7.30;3.13;;;;;;;;;;5040416;28;20339;-70
2023/04/14 04:20:10;;;;;;;9.77;3.10;;;;;;;;;;5043959;28;20197;-69
2023/04/14 04:22:38;;;;;;;6.47;2.97;;;;;;;;;;5042382;28;20517;-69
2023/04/14 04:25:04;;;;;;;6.93;2.70;;;;;;;;;;5032618;28;20236;-70
2023/04/14 04:27:30;;;;;;;6.07;2.67;;;;;;;;;;5031610;28;20201;-69
2023/04/14 04:29:56;;;;;;;6.97;2.63;;;;;;;;;;5041850;28;20252;-69
2023/04/14 04:32:22;;;;;;;9.80;3.20;;;;;;;;;;5040472;28;20186;-69
2023/04/14 04:34:49;;;;;;;9.30;3.30;;;;;;;;;;5036659;28;20190;-69
2023/04/14 04:37:15;;;;;;;5.60;2.90;;;;;;;;;;5040481;28;20217;-69
2023/04/14 04:39:41;;;;;;;5.30;2.70;;;;;;;;;;5029382;28;20185;-70
2023/04/14 04:42:07;;;;;;;8.77;2.93;;;;;;;;;;5032172;28;20563;-69
2023/04/14 04:44:33;;;;;;;10.77;3.70;;;;;;;;;;5029146;28;20190;-69
2023/04/14 04:46:59;;;;;;;8.67;3.10;;;;;;;;;;5031654;28;20240;-69
2023/04/14 04:49:25;;;;;;;8.17;2.60;;;;;;;;;;5027333;28;20198;-69
2023/04/14 04:51:51;;;;;;;7.77;2.70;;;;;;;;;;5040841;28;20251;-69
2023/04/14 04:54:17;;;;;;;5.97;2.83;;;;;;;;;;5037636;28;20190;-69
2023/04/14 04:56:42;;;;;;;10.70;3.10;;;;;;;;;;5034528;28;20181;-70
2023/04/14 04:59:08;;;;;;;8.53;2.83;;;;;;;;;;5028738;28;20233;-70
2023/04/14 05:01:33;;;;;;;10.00;2.90;;;;;;;;;;5042948;28;20205;-70
2023/04/14 05:03:59;;;;;;;8.37;3.17;;;;;;;;;;5038847;28;20189;-69
2023/04/14 05:06:25;;;;;;;8.90;3.53;;;;;;;;;;5033138;28;20228;-69
2023/04/14 05:08:51;;;;;;;7.60;3.57;;;;;;;;;;5045930;28;20242;-69
2023/04/14 05:11:17;;;;;;;8.83;3.73;;;;;;;;;;5043885;28;20180;-69
2023/04/14 05:13:42;;;;;;;12.87;4.70;;;;;;;;;;5035814;28;20216;-69
2023/04/14 05:16:09;;;;;;;12.33;5.00;;;;;;;;;;5039614;28;20712;-69
2023/04/14 05:18:35;;;;;;;12.27;4.40;;;;;;;;;;5035542;28;20186;-69
2023/04/14 05:21:02;;;;;;;6.63;3.60;;;;;;;;;;5037670;28;20220;-69
2023/04/14 05:23:28;;;;;;;8.40;3.73;;;;;;;;;;5036461;28;20267;-69
2023/04/14 05:25:57;;;;;;;10.43;4.60;;;;;;;;;;5039613;28;20181;-69
2023/04/14 05:28:23;;;;;;;11.67;4.43;;;;;;;;;;5042072;28;20203;-70
2023/04/14 05:30:49;;;;;;;12.83;4.50;;;;;;;;;;5030373;28;20233;-70
2023/04/14 05:33:14;;;;;;;9.23;3.70;;;;;;;;;;5028645;28;20213;-69
2023/04/14 05:35:40;;;;;;;8.30;4.07;;;;;;;;;;5040579;28;20614;-69
2023/04/14 05:38:05;;;;;;;9.30;4.80;;;;;;;;;;5042112;28;20247;-69
2023/04/14 05:40:33;;;;;;;10.43;4.07;;;;;;;;;;5046227;28;20283;-70
2023/04/14 05:42:59;;;;;;;8.43;3.13;;;;;;;;;;5042766;28;20304;-69
2023/04/14 05:45:24;;;;;;;8.67;3.73;;;;;;;;;;5040096;28;20758;-68
2023/04/14 05:47:50;;;;;;;9.10;3.63;;;;;;;;;;5043168;28;20255;-69
2023/04/14 05:50:15;;;;;;;8.13;3.27;;;;;;;;;;5039835;28;20193;-69
2023/04/14 05:52:41;;;;;;;6.40;3.30;;;;;;;;;;5042986;28;20278;-69
2023/04/14 05:55:07;;;;;;;4.63;3.07;;;;;;;;;;5046843;28;20565;-71
2023/04/14 05:57:32;;;;;;;6.63;3.10;;;;;;;;;;5044973;28;20196;-70
2023/04/14 05:59:57;;;;;;;4.80;2.90;;;;;;;;;;5044629;28;20189;-69
2023/04/14 06:02:23;;;;;;;4.33;3.50;;;;;;;;;;5045040;28;20229;-69
2023/04/14 06:04:48;;;;;;;7.53;3.70;;;;;;;;;;5035511;28;20194;-69
2023/04/14 06:07:14;;;;;;;7.73;3.90;;;;;;;;;;5047547;28;20221;-69
2023/04/14 06:09:41;;;;;;;7.87;3.53;;;;;;;;;;5043875;28;20192;-69
2023/04/14 06:12:07;;;;;;;11.73;4.50;;;;;;;;;;5042715;28;20194;-70
2023/04/14 06:14:32;;;;;;;11.40;4.53;;;;;;;;;;5029522;28;20709;-69
2023/04/14 06:16:57;;;;;;;11.10;5.60;;;;;;;;;;5037956;28;20574;-69
2023/04/14 06:19:23;;;;;;;9.40;6.70;;;;;;;;;;5045255;28;20193;-69
2023/04/14 06:21:48;;;;;;;13.87;7.97;;;;;;;;;;5032874;28;20618;-69
2023/04/14 06:24:14;;;;;;;14.67;7.73;;;;;;;;;;5041244;28;20193;-70
2023/04/14 06:26:39;;;;;;;16.27;8.63;;;;;;;;;;5043862;28;20276;-70
2023/04/14 06:29:06;;;;;;;19.27;9.40;;;;;;;;;;5040279;28;20305;-71
2023/04/14 06:31:32;;;;;;;18.93;8.90;;;;;;;;;;5027273;28;20199;-69
2023/04/14 06:33:57;;;;;;;17.97;9.97;;;;;;;;;;5037986;28;20197;-70
2023/04/14 06:36:22;;;;;;;19.57;10.33;;;;;;;;;;5032017;28;20649;-70
2023/04/14 06:38:48;;;;;;;24.33;11.33;;;;;;;;;;5046325;28;20276;-70
2023/04/14 06:41:13;;;;;;;20.57;11.27;;;;;;;;;;5039659;28;20744;-70
2023/04/14 06:43:39;;;;;;;23.17;11.93;;;;;;;;;;5048490;28;20410;-70
2023/04/14 06:46:04;;;;;;;26.73;11.93;;;;;;;;;;5038594;28;20196;-70
2023/04/14 06:48:30;;;;;;;22.90;12.73;;;;;;;;;;5048276;28;20189;-70
2023/04/14 06:50:56;;;;;;;28.20;13.47;;;;;;;;;;5033349;28;20265;-70
2023/04/14 06:53:22;;;;;;;29.73;12.10;;;;;;;;;;5037798;28;20193;-70
2023/04/14 06:55:50;;;;;;;19.13;10.03;;;;;;;;;;5034618;28;20198;-70
2023/04/14 06:58:16;;;;;;;22.53;10.60;;;;;;;;;;5029798;28;20214;-70
2023/04/14 07:00:41;;;;;;;19.17;10.10;;;;;;;;;;5040453;28;20244;-70
2023/04/14 07:03:07;;;;;;;20.00;9.90;;;;;;;;;;5043094;28;20573;-70
2023/04/14 07:05:32;;;;;;;16.57;8.37;;;;;;;;;;5041919;28;20281;-70
2023/04/14 07:07:58;;;;;;;17.83;8.53;;;;;;;;;;5037463;28;20198;-70
2023/04/14 07:10:23;;;;;;;19.40;8.43;;;;;;;;;;5029179;28;20190;-70
2023/04/14 07:12:49;;;;;;;18.37;7.90;;;;;;;;;;5033595;28;20618;-70
2023/04/14 07:15:14;;;;;;;13.80;7.00;;;;;;;;;;5033454;28;20251;-70
2023/04/14 07:17:40;;;;;;;16.57;6.87;;;;;;;;;;5040297;28;20193;-70
2023/04/14 07:20:06;;;;;;;11.03;6.87;;;;;;;;;;5040073;28;20194;-70
2023/04/14 07:22:32;;;;;;;12.20;6.50;;;;;;;;;;5041560;28;20217;-70
2023/04/14 07:24:57;;;;;;;12.90;6.50;;;;;;;;;;5039811;28;20206;-70
2023/04/14 07:27:23;;;;;;;10.77;5.60;;;;;;;;;;5032008;28;20702;-70
2023/04/14 07:29:48;;;;;;;14.15;5.50;;;;;;;;;;5046307;28;20225;-70
2023/04/14 07:32:14;;;;;;;13.60;6.13;;;;;;;;;;5031699;28;20650;-70
2023/04/14 07:34:42;;;;;;;14.25;6.00;;;;;;;;;;5033209;28;20221;-70
2023/04/14 07:37:08;;;;;;;17.05;6.72;;;;;;;;;;5033614;28;20170;-71
2023/04/14 07:39:34;;;;;;;10.57;5.63;;;;;;;;;;5048773;28;20304;-70
2023/04/14 07:42:00;;;;;;;10.43;5.25;;;;;;;;;;5034607;28;20324;-71
2023/04/14 07:44:26;;;;;;;11.90;5.43;;;;;;;;;;5034785;28;20205;-71
2023/04/14 07:46:51;;;;;;;14.60;5.50;;;;;;;;;;5041604;28;20197;-70
2023/04/14 07:49:17;;;;;;;14.52;4.75;;;;;;;;;;5046934;28;20189;-70
2023/04/14 07:51:42;;;;;;;10.73;4.53;;;;;;;;;;5034751;28;20231;-71
2023/04/14 07:54:08;;;;;;;7.30;4.35;;;;;;;;;;5042465;28;20181;-71
2023/04/14 07:56:34;;;;;;;7.60;4.38;;;;;;;;;;5035271;28;20610;-71
2023/04/14 07:58:59;;;;;;;12.15;4.72;;;;;;;;;;5023726;28;20197;-71
2023/04/14 08:01:25;;;;;;;9.07;4.57;;;;;;;;;;5034764;28;20591;-71
2023/04/14 08:03:51;;;;;;;10.95;4.50;;;;;;;;;;5041359;28;20532;-71
2023/04/14 08:06:16;;;;;;;11.93;3.97;;;;;;;;;;5042241;28;20183;-71
2023/04/14 08:08:42;;;;;;;8.98;4.28;;;;;;;;;;5035279;28;20189;-71
2023/04/14 08:11:07;;;;;;;9.88;4.20;;;;;;;;;;5039699;28;20189;-71
2023/04/14 08:13:32;;;;;;;8.95;4.53;;;;;;;;;;5039677;28;20201;-71
2023/04/14 08:15:58;;;;;;;12.45;4.68;;;;;;;;;;5035497;28;20194;-71
2023/04/14 08:18:23;;;;;;;9.63;4.75;;;;;;;;;;5037295;28;20613;-70
2023/04/14 08:20:49;;;;;;;11.52;4.90;;;;;;;;;;5019617;28;20219;-70
2023/04/14 08:23:14;;;;;;;9.77;5.28;;;;;;;;;;5040143;28;20535;-70
2023/04/14 08:25:41;;;;;;;11.30;4.72;;;;;;;;;;5034913;28;20298;-70
2023/04/14 08:28:06;;;;;;;7.32;2.88;;;;;;;;;;5035542;28;20213;-70
2023/04/14 08:30:32;;;;;;;5.00;2.72;;;;;;;;;;5032548;28;20709;-71
2023/04/14 08:32:57;;;;;;;10.40;3.00;;;;;;;;;;5041235;28;20602;-70
2023/04/14 08:35:23;;;;;;;10.90;2.80;;;;;;;;;;5044855;28;20270;-70
2023/04/14 08:37:49;;;;;;;13.63;3.17;;;;;;;;;;5029188;28;20269;-70
2023/04/14 08:40:16;;;;;;;5.57;2.42;;;;;;;;;;5041335;28;20811;-70
2023/04/14 08:42:41;;;;;;;11.80;3.17;;;;;;;;;;5039441;28;20205;-70
2023/04/14 08:45:07;;;;;;;7.75;2.20;;;;;;;;;;5043357;28;20193;-72
2023/04/14 08:47:34;;;;;;;11.70;2.70;;;;;;;;;;5028872;28;20185;-71
2023/04/14 08:50:16;;;;;;;9.90;2.53;;;;;;;;;;5032433;28;20181;-70
2023/04/14 08:52:45;;;;;;;7.25;2.75;;;;;;;;;;5039274;28;20232;-72
2023/04/14 08:55:12;;;;;;;8.60;2.15;;;;;;;;;;5036791;28;20573;-70
2023/04/14 08:57:38;;;;;;;5.57;2.30;;;;;;;;;;5042151;28;20599;-70
2023/04/14 09:00:04;;;;;;;9.30;2.53;;;;;;;;;;5034580;28;20209;-70
2023/04/14 09:02:34;;;;;;;7.55;2.78;;;;;;;;;;5011126;28;20198;-71
2023/04/14 09:05:00;;;;;;;9.65;2.60;;;;;;;;;;5027064;28;20534;-70
2023/04/14 09:07:26;;;;;;;10.43;2.75;;;;;;;;;;5028628;28;20190;-70
2023/04/14 09:09:52;;;;;;;11.55;2.50;;;;;;;;;;5035984;28;20182;-70
2023/04/14 09:12:19;;;;;;;12.13;3.28;;;;;;;;;;5046210;28;20505;-70
2023/04/14 09:14:45;;;;;;;11.18;3.13;;;;;;;;;;5042959;28;20185;-70
2023/04/14 09:17:11;;;;;;;7.82;2.35;;;;;;;;;;5036675;28;20735;-71
2023/04/14 09:19:37;;;;;;;10.95;2.33;;;;;;;;;;5044182;28;20539;-70
2023/04/14 09:22:02;;;;;;;12.30;3.03;;;;;;;;;;5037830;28;20209;-70
2023/04/14 09:24:28;;;;;;;7.63;2.35;;;;;;;;;;5034721;28;20194;-70
2023/04/14 09:26:56;;;;;;;8.13;2.60;;;;;;;;;;5041629;28;20185;-70
2023/04/14 09:29:22;;;;;;;8.85;2.50;;;;;;;;;;5045351;28;20229;-70
2023/04/14 09:31:47;;;;;;;8.52;2.63;;;;;;;;;;5035890;28;20190;-69
2023/04/14 09:34:19;;;;;;;7.88;2.63;;;;;;;;;;5036460;28;20216;-70
2023/04/14 09:37:03;;;;;;;9.57;2.20;;;;;;;;;;5031571;28;20184;-70
2023/04/14 09:39:28;;;;;;;6.90;2.38;;;;;;;;;;5034704;28;20213;-70
2023/04/14 09:41:54;;;;;;;7.80;2.58;;;;;;;;;;5035223;28;20274;-70
2023/04/14 09:44:20;;;;;;;5.93;2.08;;;;;;;;;;5044778;28;20193;-70
2023/04/14 09:47:06;;;;;;;4.80;1.30;;;;;;;;;;5042448;28;20191;-70
2023/04/14 09:49:32;;;;;;;7.75;2.25;;;;;;;;;;5040223;28;20212;-70
2023/04/14 09:52:07;;;;;;;8.35;1.70;;;;;;;;;;5033974;28;20277;-70
2023/04/14 09:54:34;;;;;;;7.78;1.73;;;;;;;;;;5036114;28;20660;-70
2023/04/14 09:57:00;;;;;;;5.40;2.00;;;;;;;;;;5030683;28;20201;-71
2023/04/14 09:59:33;;;;;;;5.43;1.63;;;;;;;;;;5049063;28;20193;-70
2023/04/14 10:02:03;;;;;;;6.80;2.00;;;;;;;;;;5040828;28;20224;-70
2023/04/14 10:04:29;;;;;;;7.38;1.70;;;;;;;;;;5043706;28;20279;-70
2023/04/14 10:06:56;;;;;;;5.53;1.70;;;;;;;;;;5038279;28;20194;-70
2023/04/14 10:09:22;;;;;;;7.13;1.92;;;;;;;;;;5038889;28;20639;-70
2023/04/14 10:12:23;;;;;;;6.60;1.33;;;;;;;;;;5035626;28;20178;-70
2023/04/14 10:14:48;;;;;;;4.70;1.15;;;;;;;;;;5044682;28;20185;-70
2023/04/14 10:17:14;;;;;;;7.75;1.35;;;;;;;;;;5035576;28;20182;-70
2023/04/14 10:19:39;;;;;;;10.88;2.15;;;;;;;;;;5037193;28;20196;-70
2023/04/14 10:22:05;;;;;;;8.57;1.67;;;;;;;;;;5037780;28;20221;-70
2023/04/14 10:24:31;;;;;;;3.38;1.25;;;;;;;;;;5043268;28;20197;-70
2023/04/14 10:27:01;;;;;;;4.63;1.73;;;;;;;;;;5037144;28;20182;-69
2023/04/14 10:29:27;;;;;;;5.50;1.40;;;;;;;;;;5041553;28;20233;-69
2023/04/14 10:32:06;;;;;;;5.15;1.40;;;;;;;;;;5049067;28;20182;-69
2023/04/14 10:34:32;;;;;;;3.95;1.35;;;;;;;;;;5044916;28;20207;-69
2023/04/14 10:37:17;;;;;;;7.82;1.83;;;;;;;;;;5040909;28;20316;-68
2023/04/14 10:39:42;;;;;;;4.95;1.48;;;;;;;;;;5041133;28;20189;-69
2023/04/14 10:42:08;;;;;;;6.50;1.73;;;;;;;;;;5049125;28;20696;-68
2023/04/14 10:44:34;;;;;;;7.22;1.60;;;;;;;;;;5040873;28;20201;-69
2023/04/14 10:47:03;;;;;;;5.38;1.60;;;;;;;;;;5043811;28;20260;-69
2023/04/14 10:49:37;;;;;;;6.95;1.63;;;;;;;;;;5044218;28;20182;-69
2023/04/14 10:52:05;;;;;;;4.95;1.50;;;;;;;;;;5040798;28;20554;-69
2023/04/14 10:55:00;;;;;;;7.10;1.75;;;;;;;;;;5039811;28;20233;-69
2023/04/14 10:57:27;;;;;;;5.90;1.70;;;;;;;;;;5041637;28;20198;-70
2023/04/14 10:59:57;;;;;;;6.43;1.65;;;;;;;;;;5044743;28;20181;-70
2023/04/14 11:02:28;;;;;;;4.22;1.60;;;;;;;;;;5044605;28;20209;-69
2023/04/14 11:05:05;;;;;;;6.90;1.70;;;;;;;;;;5038696;28;20193;-69
2023/04/14 11:07:45;;;;;;;6.97;1.63;;;;;;;;;;5046496;28;20185;-69
2023/04/14 11:10:16;;;;;;;6.43;1.40;;;;;;;;;;5042564;28;20195;-70
2023/04/14 11:12:42;;;;;;;7.20;1.55;;;;;;;;;;5032857;28;20213;-70
2023/04/14 11:15:08;;;;;;;4.75;1.88;;;;;;;;;;5045616;28;20215;-69
2023/04/14 11:17:41;;;;;;;5.38;1.95;;;;;;;;;;5044443;28;20204;-68
2023/04/14 11:20:22;;;;;;;7.28;1.85;;;;;;;;;;5039627;28;20293;-69
2023/04/14 11:22:51;;;;;;;5.88;1.52;;;;;;;;;;5036835;28;20282;-69
2023/04/14 11:25:18;;;;;;;5.63;1.90;;;;;;;;;;5036802;28;20668;-69
2023/04/14 11:27:45;;;;;;;6.82;1.80;;;;;;;;;;5038195;28;20614;-69
2023/04/14 11:30:16;;;;;;;5.93;1.90;;;;;;;;;;5038851;28;20231;-69
2023/04/14 11:32:52;;;;;;;4.85;1.77;;;;;;;;;;5035654;28;20198;-69
2023/04/14 11:35:23;;;;;;;6.28;2.15;;;;;;;;;;5044181;28;20185;-69
2023/04/14 11:37:52;;;;;;;6.57;1.65;;;;;;;;;;5044053;28;20326;-69
2023/04/14 11:40:18;;;;;;;7.40;1.75;;;;;;;;;;5041567;28;20189;-71
2023/04/14 11:42:45;;;;;;;5.30;1.80;;;;;;;;;;5039291;28;20206;-69
2023/04/14 11:45:14;;;;;;;8.75;2.20;;;;;;;;;;5043726;28;20763;-67
2023/04/14 11:47:45;;;;;;;3.53;1.55;;;;;;;;;;5043536;28;20189;-67
2023/04/14 11:50:10;;;;;;;2.90;1.17;;;;;;;;;;5040707;28;20286;-68
2023/04/14 11:52:36;;;;;;;6.25;2.03;;;;;;;;;;5040945;28;20543;-67
2023/04/14 11:55:01;;;;;;;6.18;1.88;;;;;;;;;;5039689;28;20196;-68
2023/04/14 11:57:27;;;;;;;10.02;1.80;;;;;;;;;;5038768;28;20571;-69
2023/04/14 11:59:55;;;;;;;6.75;1.90;;;;;;;;;;5044479;28;20231;-68
2023/04/14 12:02:20;;;;;;;4.65;1.25;;;;;;;;;;5035100;28;20312;-68
2023/04/14 12:04:50;;;;;;;6.45;1.92;;;;;;;;;;5033816;28;20276;-68
2023/04/14 12:07:18;;;;;;;7.30;1.80;;;;;;;;;;5027950;28;20850;-68
2023/04/14 12:09:45;;;;;;;8.57;1.80;;;;;;;;;;5031426;28;20497;-69
2023/04/14 12:12:13;;;;;;;4.85;1.50;;;;;;;;;;5045477;28;20177;-67
2023/04/14 12:14:43;;;;;;;5.95;1.42;;;;;;;;;;5043427;28;20268;-68
2023/04/14 12:17:09;;;;;;;4.90;1.60;;;;;;;;;;5032191;28;20189;-68
2023/04/14 12:19:36;;;;;;;5.38;1.85;;;;;;;;;;5040043;28;20194;-68
2023/04/14 12:22:06;;;;;;;7.38;1.80;;;;;;;;;;5031611;28;20539;-68
2023/04/14 12:24:35;;;;;;;4.13;1.40;;;;;;;;;;5044269;28;20194;-68
2023/04/14 12:27:03;;;;;;;6.65;1.63;;;;;;;;;;5031863;28;20287;-69
2023/04/14 12:29:30;;;;;;;6.40;2.00;;;;;;;;;;5044917;28;20218;-69
2023/04/14 12:31:56;;;;;;;7.32;2.03;;;;;;;;;;5038909;28;20270;-68
2023/04/14 12:34:25;;;;;;;7.03;1.83;;;;;;;;;;5031228;28;20618;-68
2023/04/14 12:36:52;;;;;;;9.13;2.00;;;;;;;;;;5029059;28;20182;-68
2023/04/14 12:39:19;;;;;;;10.18;2.33;;;;;;;;;;5042040;28;20252;-68
2023/04/14 12:41:45;;;;;;;5.25;1.60;;;;;;;;;;5046678;28;20562;-69
2023/04/14 12:44:14;;;;;;;9.60;1.75;;;;;;;;;;5035609;28;20185;-69
2023/04/14 12:46:46;;;;;;;7.57;1.90;;;;;;;;;;5035995;28;20186;-69
2023/04/14 12:49:32;;;;;;;6.65;2.25;;;;;;;;;;5035127;28;20201;-68
2023/04/14 12:51:57;;;;;;;6.63;1.50;;;;;;;;;;5035136;28;20201;-68
2023/04/14 12:54:23;;;;;;;5.75;1.40;;;;;;;;;;5041930;28;20224;-68
2023/04/14 12:56:48;;;;;;;6.10;2.10;;;;;;;;;;5036224;28;20598;-67
2023/04/14 12:59:14;;;;;;;3.42;1.60;;;;;;;;;;5028511;28;20301;-68
2023/04/14 13:01:40;;;;;;;7.97;1.60;;;;;;;;;;5036243;28;20664;-69
2023/04/14 13:04:05;;;;;;;4.93;1.95;;;;;;;;;;5040832;28;20204;-68
2023/04/14 13:06:31;;;;;;;5.18;2.13;;;;;;;;;;5039064;28;20825;-69
2023/04/14 13:08:57;;;;;;;5.25;1.70;;;;;;;;;;5041191;28;20284;-69
2023/04/14 13:11:23;;;;;;;7.70;1.98;;;;;;;;;;5043670;28;20186;-68
2023/04/14 13:13:49;;;;;;;5.65;1.98;;;;;;;;;;5044333;28;20645;-69
2023/04/14 13:16:16;;;;;;;5.30;1.92;;;;;;;;;;5043039;28;20216;-69
2023/04/14 13:18:44;;;;;;;4.68;1.83;;;;;;;;;;5040300;28;20203;-71
2023/04/14 13:21:10;;;;;;;4.32;2.13;;;;;;;;;;5043477;28;20221;-72
2023/04/14 13:23:35;;;;;;;4.22;2.00;;;;;;;;;;5043850;28;20189;-69
2023/04/14 13:26:01;;;;;;;5.25;2.08;;;;;;;;;;5044805;28;20482;-70
2023/04/14 13:28:26;;;;;;;7.90;2.40;;;;;;;;;;5036900;28;20542;-70
2023/04/14 13:30:54;;;;;;;8.20;2.33;;;;;;;;;;5042869;28;20193;-70
2023/04/14 13:33:20;;;;;;;6.32;2.35;;;;;;;;;;5042569;28;20611;-69
2023/04/14 13:35:46;;;;;;;8.48;2.30;;;;;;;;;;5042869;28;20310;-69
2023/04/14 13:38:12;;;;;;;8.75;2.42;;;;;;;;;;5043117;28;20276;-70
2023/04/14 13:40:37;;;;;;;6.85;2.25;;;;;;;;;;5043329;28;20196;-69
2023/04/14 13:43:03;;;;;;;7.93;2.72;;;;;;;;;;5041625;28;20225;-70
2023/04/14 13:45:28;;;;;;;6.82;2.50;;;;;;;;;;5038437;28;20197;-70
2023/04/14 13:47:54;;;;;;;7.07;2.40;;;;;;;;;;5041788;28;20717;-69
2023/04/14 13:50:20;;;;;;;7.78;2.00;;;;;;;;;;5037836;28;20193;-70
2023/04/14 13:52:45;;;;;;;9.10;2.20;;;;;;;;;;5037324;28;20182;-70
2023/04/14 13:55:11;;;;;;;7.50;2.10;;;;;;;;;;5043318;28;20182;-72
2023/04/14 13:57:36;;;;;;;5.47;2.15;;;;;;;;;;5041406;28;20201;-70
2023/04/14 14:00:08;;;;;;;8.82;2.22;;;;;;;;;;5039408;28;20221;-69
2023/04/14 14:02:35;;;;;;;6.70;1.90;;;;;;;;;;5040712;28;20247;-69
2023/04/14 14:05:02;;;;;;;9.10;2.40;;;;;;;;;;5044232;28;20269;-70
2023/04/14 14:07:27;;;;;;;8.30;2.20;;;;;;;;;;5042938;28;20232;-70
2023/04/14 14:09:52;;;;;;;7.95;2.85;;;;;;;;;;5046923;28;20216;-70
2023/04/14 14:12:18;;;;;;;8.05;2.35;;;;;;;;;;5044407;28;20207;-69
2023/04/14 14:14:43;;;;;;;8.82;2.50;;;;;;;;;;5035853;28;20605;-70
2023/04/14 14:17:09;;;;;;;6.90;2.45;;;;;;;;;;5041292;28;20270;-69
2023/04/14 14:19:34;;;;;;;8.82;2.15;;;;;;;;;;5043579;28;20216;-69
2023/04/14 14:22:00;;;;;;;6.22;2.78;;;;;;;;;;5045331;28;20286;-70
2023/04/14 14:24:26;;;;;;;8.40;2.47;;;;;;;;;;5037772;28;20189;-69
2023/04/14 14:26:51;;;;;;;7.15;2.20;;;;;;;;;;5044112;28;20594;-69
2023/04/14 14:29:16;;;;;;;5.60;2.03;;;;;;;;;;5041414;28;20380;-69
2023/04/14 14:31:42;;;;;;;5.00;1.80;;;;;;;;;;5042772;28;20649;-70
2023/04/14 14:34:08;;;;;;;6.13;2.15;;;;;;;;;;5046542;28;20181;-70
2023/04/14 14:36:34;;;;;;;6.18;1.90;;;;;;;;;;5045599;28;20311;-70
2023/04/14 14:38:59;;;;;;;7.28;1.88;;;;;;;;;;5044790;28;20272;-69
2023/04/14 14:41:25;;;;;;;10.27;2.63;;;;;;;;;;5035037;28;20214;-69
2023/04/14 14:43:51;;;;;;;4.60;2.00;;;;;;;;;;5043612;28;20544;-69